sensor_id;sensor_type;location;lat;lon;timestamp;P1;durP1;ratioP1;P2;durP2;ratioP2
3795;SDS011;1913;50.660;7.834;2023-04-15T00:00:36;10.03;;;2.53;;
3795;SDS011;1913;50.660;7.834;2023-04-15T00:03:02;5.57;;;2.93;;
3795;SDS011;1913;50.660;7.834;2023-04-15T00:05:29;10.40;;;2.70;;
3795;SDS011;1913;50.660;7.834;2023-04-15T00:07:55;6.37;;;2.20;;
3795;SDS011;1913;50.660;7.834;2023-04-15T00:10:21;5.80;;;2.50;;
3795;SDS011;1913;50.660;7.834;2023-04-15T00:12:46;5.90;;;2.80;;
3795;SDS011;1913;50.660;7.834;2023-04-15T00:15:12;3.83;;;2.50;;
3795;SDS011;1913;50.660;7.834;2023-04-15T00:17:37;6.80;;;3.20;;
3795;SDS011;1913;50.660;7.834;2023-04-15T00:20:04;7.67;;;2.80;;
3795;SDS011;1913;50.660;7.834;2023-04-15T00:22:30;6.27;;;3.00;;
3795;SDS011;1913;50.660;7.834;2023-04-15T00:24:56;4.50;;;2.80;;
3795;SDS011;1913;50.660;7.834;2023-04-15T00:27:22;4.73;;;2.40;;
3795;SDS011;1913;50.660;7.834;2023-04-15T00:29:47;6.60;;;2.80;;
3795;SDS011;1913;50.660;7.834;2023-04-15T00:32:13;7.17;;;2.60;;
3795;SDS011;1913;50.660;7.834;2023-04-15T00:34:38;8.97;;;3.13;;
3795;SDS011;1913;50.660;7.834;2023-04-15T00:37:03;4.40;;;3.00;;
3795;SDS011;1913;50.660;7.834;2023-04-15T00:39:29;6.30;;;3.40;;
3795;SDS011;1913;50.660;7.834;2023-04-15T00:41:54;4.70;;;3.10;;
3795;SDS011;1913;50.660;7.834;2023-04-15T00:44:21;4.80;;;3.27;;
3795;SDS011;1913;50.660;7.834;2023-04-15T00:46:47;3.33;;;2.43;;
3795;SDS011;1913;50.660;7.834;2023-04-15T00:49:15;4.77;;;2.53;;
3795;SDS011;1913;50.660;7.834;2023-04-15T00:51:42;6.83;;;2.77;;
3795;SDS011;1913;50.660;7.834;2023-04-15T00:54:09;8.90;;;2.83;;
3795;SDS011;1913;50.660;7.834;2023-04-15T00:56:35;6.80;;;3.40;;
3795;SDS011;1913;50.660;7.834;2023-04-15T00:59:02;4.27;;;2.70;;
3795;SDS011;1913;50.660;7.834;2023-04-15T01:01:28;7.23;;;2.90;;
3795;SDS011;1913;50.660;7.834;2023-04-15T01:03:55;9.63;;;3.30;;
3795;SDS011;1913;50.660;7.834;2023-04-15T01:06:22;5.03;;;3.17;;
3795;SDS011;1913;50.660;7.834;2023-04-15T01:08:48;5.53;;;3.20;;
3795;SDS011;1913;50.660;7.834;2023-04-15T01:11:14;6.50;;;3.10;;
3795;SDS011;1913;50.660;7.834;2023-04-15T01:13:40;7.23;;;3.60;;
3795;SDS011;1913;50.660;7.834;2023-04-15T01:16:06;5.80;;;3.00;;
3795;SDS011;1913;50.660;7.834;2023-04-15T01:18:33;7.23;;;3.13;;
3795;SDS011;1913;50.660;7.834;2023-04-15T01:20:59;4.33;;;3.03;;
3795;SDS011;1913;50.660;7.834;2023-04-15T01:23:26;8.53;;;3.27;;
3795;SDS011;1913;50.660;7.834;2023-04-15T01:25:53;5.27;;;2.93;;
3795;SDS011;1913;50.660;7.834;2023-04-15T01:28:20;7.60;;;3.00;;
3795;SDS011;1913;50.660;7.834;2023-04-15T01:30:45;4.57;;;3.00;;
3795;SDS011;1913;50.660;7.834;2023-04-15T01:33:10;11.87;;;3.63;;
3795;SDS011;1913;50.660;7.834;2023-04-15T01:35:36;6.70;;;3.23;;
3795;SDS011;1913;50.660;7.834;2023-04-15T01:38:04;9.13;;;3.73;;
3795;SDS011;1913;50.660;7.834;2023-04-15T01:40:33;6.40;;;3.13;;
3795;SDS011;1913;50.660;7.834;2023-04-15T01:42:59;6.43;;;3.23;;
3795;SDS011;1913;50.660;7.834;2023-04-15T01:45:26;6.13;;;3.20;;
3795;SDS011;1913;50.660;7.834;2023-04-15T01:47:52;13.70;;;3.50;;
3795;SDS011;1913;50.660;7.834;2023-04-15T01:50:18;7.80;;;3.50;;
3795;SDS011;1913;50.660;7.834;2023-04-15T01:52:44;5.07;;;3.60;;
3795;SDS011;1913;50.660;7.834;2023-04-15T01:55:11;10.20;;;3.83;;
3795;SDS011;1913;50.660;7.834;2023-04-15T01:57:36;9.63;;;3.77;;
3795;SDS011;1913;50.660;7.834;2023-04-15T02:00:02;7.30;;;3.60;;
3795;SDS011;1913;50.660;7.834;2023-04-15T02:02:28;7.27;;;3.73;;
3795;SDS011;1913;50.660;7.834;2023-04-15T02:04:56;7.57;;;3.87;;
3795;SDS011;1913;50.660;7.834;2023-04-15T02:07:22;8.00;;;3.33;;
3795;SDS011;1913;50.660;7.834;2023-04-15T02:09:48;9.30;;;4.00;;
3795;SDS011;1913;50.660;7.834;2023-04-15T02:12:13;8.83;;;3.20;;
3795;SDS011;1913;50.660;7.834;2023-04-15T02:14:38;7.37;;;3.50;;
3795;SDS011;1913;50.660;7.834;2023-04-15T02:17:04;7.70;;;3.50;;
3795;SDS011;1913;50.660;7.834;2023-04-15T02:19:33;6.83;;;3.37;;
3795;SDS011;1913;50.660;7.834;2023-04-15T02:21:59;11.60;;;3.73;;
3795;SDS011;1913;50.660;7.834;2023-04-15T02:24:26;8.50;;;3.70;;
3795;SDS011;1913;50.660;7.834;2023-04-15T02:26:52;8.20;;;3.80;;
3795;SDS011;1913;50.660;7.834;2023-04-15T02:29:17;11.47;;;5.17;;
3795;SDS011;1913;50.660;7.834;2023-04-15T02:31:43;3.37;;;3.00;;
3795;SDS011;1913;50.660;7.834;2023-04-15T02:34:09;8.50;;;3.50;;
3795;SDS011;1913;50.660;7.834;2023-04-15T02:36:34;8.93;;;4.23;;
3795;SDS011;1913;50.660;7.834;2023-04-15T02:39:00;8.07;;;3.90;;
3795;SDS011;1913;50.660;7.834;2023-04-15T02:41:26;10.17;;;4.03;;
3795;SDS011;1913;50.660;7.834;2023-04-15T02:43:52;9.37;;;4.00;;
3795;SDS011;1913;50.660;7.834;2023-04-15T02:46:18;5.30;;;3.70;;
3795;SDS011;1913;50.660;7.834;2023-04-15T02:48:43;7.40;;;4.07;;
3795;SDS011;1913;50.660;7.834;2023-04-15T02:51:17;9.20;;;4.13;;
3795;SDS011;1913;50.660;7.834;2023-04-15T02:53:46;4.43;;;3.70;;
3795;SDS011;1913;50.660;7.834;2023-04-15T02:56:14;7.00;;;3.70;;
3795;SDS011;1913;50.660;7.834;2023-04-15T02:58:42;9.03;;;4.27;;
3795;SDS011;1913;50.660;7.834;2023-04-15T03:01:09;5.00;;;3.63;;
3795;SDS011;1913;50.660;7.834;2023-04-15T03:03:34;6.50;;;3.97;;
3795;SDS011;1913;50.660;7.834;2023-04-15T03:06:00;7.27;;;4.30;;
3795;SDS011;1913;50.660;7.834;2023-04-15T03:08:25;6.10;;;3.53;;
3795;SDS011;1913;50.660;7.834;2023-04-15T03:10:51;8.03;;;4.13;;
3795;SDS011;1913;50.660;7.834;2023-04-15T03:13:17;10.63;;;4.20;;
3795;SDS011;1913;50.660;7.834;2023-04-15T03:15:45;7.60;;;3.80;;
3795;SDS011;1913;50.660;7.834;2023-04-15T03:18:11;5.43;;;4.00;;
3795;SDS011;1913;50.660;7.834;2023-04-15T03:20:37;7.53;;;4.37;;
3795;SDS011;1913;50.660;7.834;2023-04-15T03:23:02;5.37;;;4.00;;
3795;SDS011;1913;50.660;7.834;2023-04-15T03:25:28;7.93;;;4.33;;
3795;SDS011;1913;50.660;7.834;2023-04-15T03:27:53;8.27;;;5.60;;
3795;SDS011;1913;50.660;7.834;2023-04-15T03:30:18;7.07;;;4.43;;
3795;SDS011;1913;50.660;7.834;2023-04-15T03:32:44;9.27;;;4.33;;
3795;SDS011;1913;50.660;7.834;2023-04-15T03:35:09;9.90;;;4.53;;
3795;SDS011;1913;50.660;7.834;2023-04-15T03:37:35;5.80;;;3.80;;
3795;SDS011;1913;50.660;7.834;2023-04-15T03:40:00;5.27;;;3.63;;
3795;SDS011;1913;50.660;7.834;2023-04-15T03:42:26;6.83;;;4.17;;
3795;SDS011;1913;50.660;7.834;2023-04-15T03:44:52;7.80;;;4.33;;
3795;SDS011;1913;50.660;7.834;2023-04-15T03:47:17;8.53;;;5.00;;
3795;SDS011;1913;50.660;7.834;2023-04-15T03:49:43;7.93;;;4.50;;
3795;SDS011;1913;50.660;7.834;2023-04-15T03:52:08;9.33;;;4.90;;
3795;SDS011;1913;50.660;7.834;2023-04-15T03:54:34;6.60;;;4.30;;
3795;SDS011;1913;50.660;7.834;2023-04-15T03:56:59;5.90;;;4.30;;
3795;SDS011;1913;50.660;7.834;2023-04-15T03:59:25;7.00;;;4.20;;
3795;SDS011;1913;50.660;7.834;2023-04-15T04:01:51;10.27;;;4.33;;
3795;SDS011;1913;50.660;7.834;2023-04-15T04:04:16;7.47;;;4.87;;
3795;SDS011;1913;50.660;7.834;2023-04-15T04:06:42;7.93;;;5.10;;
3795;SDS011;1913;50.660;7.834;2023-04-15T04:09:07;15.20;;;5.73;;
3795;SDS011;1913;50.660;7.834;2023-04-15T04:11:33;12.93;;;5.33;;
3795;SDS011;1913;50.660;7.834;2023-04-15T04:13:58;9.13;;;5.40;;
3795;SDS011;1913;50.660;7.834;2023-04-15T04:16:24;7.20;;;5.73;;
3795;SDS011;1913;50.660;7.834;2023-04-15T04:18:49;8.20;;;5.33;;
3795;SDS011;1913;50.660;7.834;2023-04-15T04:21:15;7.70;;;5.13;;
3795;SDS011;1913;50.660;7.834;2023-04-15T04:23:41;8.30;;;5.03;;
3795;SDS011;1913;50.660;7.834;2023-04-15T04:26:06;7.73;;;4.40;;
3795;SDS011;1913;50.660;7.834;2023-04-15T04:28:32;9.70;;;4.97;;
3795;SDS011;1913;50.660;7.834;2023-04-15T04:30:57;10.60;;;5.90;;
3795;SDS011;1913;50.660;7.834;2023-04-15T04:33:23;10.13;;;5.20;;
3795;SDS011;1913;50.660;7.834;2023-04-15T04:35:48;8.13;;;5.80;;
3795;SDS011;1913;50.660;7.834;2023-04-15T04:38:14;11.03;;;5.67;;
3795;SDS011;1913;50.660;7.834;2023-04-15T04:40:39;8.13;;;5.10;;
3795;SDS011;1913;50.660;7.834;2023-04-15T04:43:05;11.30;;;5.70;;
3795;SDS011;1913;50.660;7.834;2023-04-15T04:45:30;8.80;;;5.10;;
3795;SDS011;1913;50.660;7.834;2023-04-15T04:47:56;9.33;;;5.20;;
3795;SDS011;1913;50.660;7.834;2023-04-15T04:50:21;11.20;;;6.23;;
3795;SDS011;1913;50.660;7.834;2023-04-15T04:52:46;10.47;;;5.23;;
3795;SDS011;1913;50.660;7.834;2023-04-15T04:55:13;9.30;;;5.57;;
3795;SDS011;1913;50.660;7.834;2023-04-15T04:57:41;9.10;;;5.30;;
3795;SDS011;1913;50.660;7.834;2023-04-15T05:00:06;7.90;;;4.93;;
3795;SDS011;1913;50.660;7.834;2023-04-15T05:02:33;9.10;;;5.37;;
3795;SDS011;1913;50.660;7.834;2023-04-15T05:04:59;10.50;;;5.10;;
3795;SDS011;1913;50.660;7.834;2023-04-15T05:07:24;8.73;;;5.33;;
3795;SDS011;1913;50.660;7.834;2023-04-15T05:09:50;5.93;;;4.40;;
3795;SDS011;1913;50.660;7.834;2023-04-15T05:12:15;7.07;;;4.40;;
3795;SDS011;1913;50.660;7.834;2023-04-15T05:14:42;8.57;;;5.23;;
3795;SDS011;1913;50.660;7.834;2023-04-15T05:17:08;6.30;;;4.53;;
3795;SDS011;1913;50.660;7.834;2023-04-15T05:19:33;9.17;;;5.27;;
3795;SDS011;1913;50.660;7.834;2023-04-15T05:21:59;9.37;;;4.90;;
3795;SDS011;1913;50.660;7.834;2023-04-15T05:24:25;6.53;;;4.70;;
3795;SDS011;1913;50.660;7.834;2023-04-15T05:26:51;9.50;;;5.77;;
3795;SDS011;1913;50.660;7.834;2023-04-15T05:29:16;7.17;;;5.33;;
3795;SDS011;1913;50.660;7.834;2023-04-15T05:31:42;8.30;;;4.90;;
3795;SDS011;1913;50.660;7.834;2023-04-15T05:34:07;6.23;;;4.63;;
3795;SDS011;1913;50.660;7.834;2023-04-15T05:36:33;7.90;;;4.97;;
3795;SDS011;1913;50.660;7.834;2023-04-15T05:38:58;5.57;;;4.60;;
3795;SDS011;1913;50.660;7.834;2023-04-15T05:41:24;10.73;;;5.63;;
3795;SDS011;1913;50.660;7.834;2023-04-15T05:43:49;8.90;;;5.00;;
3795;SDS011;1913;50.660;7.834;2023-04-15T05:46:15;7.30;;;4.87;;
3795;SDS011;1913;50.660;7.834;2023-04-15T05:48:41;9.13;;;5.23;;
3795;SDS011;1913;50.660;7.834;2023-04-15T05:51:06;8.70;;;5.00;;
3795;SDS011;1913;50.660;7.834;2023-04-15T05:53:32;10.00;;;5.83;;
3795;SDS011;1913;50.660;7.834;2023-04-15T05:55:57;7.20;;;4.93;;
3795;SDS011;1913;50.660;7.834;2023-04-15T05:58:23;6.60;;;4.30;;
3795;SDS011;1913;50.660;7.834;2023-04-15T06:00:48;5.67;;;3.97;;
3795;SDS011;1913;50.660;7.834;2023-04-15T06:03:14;8.90;;;4.50;;
3795;SDS011;1913;50.660;7.834;2023-04-15T06:05:40;5.30;;;4.10;;
3795;SDS011;1913;50.660;7.834;2023-04-15T06:08:05;9.40;;;4.23;;
3795;SDS011;1913;50.660;7.834;2023-04-15T06:10:31;8.83;;;5.00;;
3795;SDS011;1913;50.660;7.834;2023-04-15T06:13:00;7.77;;;4.53;;
3795;SDS011;1913;50.660;7.834;2023-04-15T06:15:27;6.10;;;4.00;;
3795;SDS011;1913;50.660;7.834;2023-04-15T06:17:53;5.37;;;3.60;;
3795;SDS011;1913;50.660;7.834;2023-04-15T06:20:18;6.53;;;3.27;;
3795;SDS011;1913;50.660;7.834;2023-04-15T06:22:44;4.10;;;3.20;;
3795;SDS011;1913;50.660;7.834;2023-04-15T06:25:10;3.73;;;3.27;;
3795;SDS011;1913;50.660;7.834;2023-04-15T06:27:35;4.47;;;2.47;;
3795;SDS011;1913;50.660;7.834;2023-04-15T06:30:01;3.10;;;2.50;;
3795;SDS011;1913;50.660;7.834;2023-04-15T06:32:27;5.37;;;3.20;;
3795;SDS011;1913;50.660;7.834;2023-04-15T06:34:53;5.53;;;3.23;;
3795;SDS011;1913;50.660;7.834;2023-04-15T06:37:18;5.37;;;2.90;;
3795;SDS011;1913;50.660;7.834;2023-04-15T06:39:44;2.67;;;2.47;;
3795;SDS011;1913;50.660;7.834;2023-04-15T06:42:09;3.13;;;2.80;;
3795;SDS011;1913;50.660;7.834;2023-04-15T06:44:35;5.47;;;3.23;;
3795;SDS011;1913;50.660;7.834;2023-04-15T06:47:01;7.17;;;3.20;;
3795;SDS011;1913;50.660;7.834;2023-04-15T06:49:27;6.87;;;5.17;;
3795;SDS011;1913;50.660;7.834;2023-04-15T06:51:52;9.53;;;4.40;;
3795;SDS011;1913;50.660;7.834;2023-04-15T06:54:18;9.70;;;5.43;;
3795;SDS011;1913;50.660;7.834;2023-04-15T06:56:43;10.63;;;5.60;;
3795;SDS011;1913;50.660;7.834;2023-04-15T06:59:09;8.80;;;6.00;;
3795;SDS011;1913;50.660;7.834;2023-04-15T07:01:34;7.23;;;4.80;;
3795;SDS011;1913;50.660;7.834;2023-04-15T07:04:00;9.43;;;6.30;;
3795;SDS011;1913;50.660;7.834;2023-04-15T07:06:25;7.67;;;5.40;;
3795;SDS011;1913;50.660;7.834;2023-04-15T07:08:52;7.63;;;5.00;;
3795;SDS011;1913;50.660;7.834;2023-04-15T07:11:18;6.50;;;5.13;;
3795;SDS011;1913;50.660;7.834;2023-04-15T07:13:44;7.33;;;4.43;;
3795;SDS011;1913;50.660;7.834;2023-04-15T07:16:10;7.20;;;4.37;;
3795;SDS011;1913;50.660;7.834;2023-04-15T07:18:36;7.43;;;4.63;;
3795;SDS011;1913;50.660;7.834;2023-04-15T07:21:01;5.90;;;4.03;;
3795;SDS011;1913;50.660;7.834;2023-04-15T07:23:27;4.90;;;3.90;;
3795;SDS011;1913;50.660;7.834;2023-04-15T07:25:52;4.47;;;3.83;;
3795;SDS011;1913;50.660;7.834;2023-04-15T07:28:17;4.27;;;3.87;;
3795;SDS011;1913;50.660;7.834;2023-04-15T07:30:43;5.93;;;3.87;;
3795;SDS011;1913;50.660;7.834;2023-04-15T07:33:08;6.07;;;3.77;;
3795;SDS011;1913;50.660;7.834;2023-04-15T07:35:34;6.27;;;4.10;;
3795;SDS011;1913;50.660;7.834;2023-04-15T07:37:59;10.40;;;4.03;;
3795;SDS011;1913;50.660;7.834;2023-04-15T07:40:25;7.30;;;3.77;;
3795;SDS011;1913;50.660;7.834;2023-04-15T07:42:51;5.50;;;3.73;;
3795;SDS011;1913;50.660;7.834;2023-04-15T07:45:17;3.87;;;3.47;;
3795;SDS011;1913;50.660;7.834;2023-04-15T07:47:42;6.10;;;4.27;;
3795;SDS011;1913;50.660;7.834;2023-04-15T07:50:08;6.20;;;3.77;;
3795;SDS011;1913;50.660;7.834;2023-04-15T07:52:35;9.83;;;4.70;;
3795;SDS011;1913;50.660;7.834;2023-04-15T07:55:06;6.33;;;4.47;;
3795;SDS011;1913;50.660;7.834;2023-04-15T07:57:33;5.80;;;3.90;;
3795;SDS011;1913;50.660;7.834;2023-04-15T07:59:59;8.93;;;3.80;;
3795;SDS011;1913;50.660;7.834;2023-04-15T08:02:25;8.23;;;3.77;;
3795;SDS011;1913;50.660;7.834;2023-04-15T08:04:51;4.63;;;3.57;;
3795;SDS011;1913;50.660;7.834;2023-04-15T08:07:18;5.00;;;3.80;;
3795;SDS011;1913;50.660;7.834;2023-04-15T08:09:43;6.33;;;3.37;;
3795;SDS011;1913;50.660;7.834;2023-04-15T08:12:10;4.53;;;3.00;;
3795;SDS011;1913;50.660;7.834;2023-04-15T08:14:37;7.57;;;2.97;;
3795;SDS011;1913;50.660;7.834;2023-04-15T08:17:04;6.70;;;3.43;;
3795;SDS011;1913;50.660;7.834;2023-04-15T08:19:29;6.30;;;3.00;;
3795;SDS011;1913;50.660;7.834;2023-04-15T08:21:55;4.60;;;3.17;;
3795;SDS011;1913;50.660;7.834;2023-04-15T08:24:21;8.70;;;3.07;;
3795;SDS011;1913;50.660;7.834;2023-04-15T08:26:48;7.23;;;3.00;;
3795;SDS011;1913;50.660;7.834;2023-04-15T08:29:14;2.77;;;2.30;;
3795;SDS011;1913;50.660;7.834;2023-04-15T08:31:39;3.17;;;2.43;;
3795;SDS011;1913;50.660;7.834;2023-04-15T08:34:05;5.83;;;2.37;;
3795;SDS011;1913;50.660;7.834;2023-04-15T08:36:30;4.23;;;2.40;;
3795;SDS011;1913;50.660;7.834;2023-04-15T08:38:56;4.80;;;2.60;;
3795;SDS011;1913;50.660;7.834;2023-04-15T08:41:24;5.40;;;3.20;;
3795;SDS011;1913;50.660;7.834;2023-04-15T08:43:52;5.87;;;3.00;;
3795;SDS011;1913;50.660;7.834;2023-04-15T08:46:29;3.00;;;2.63;;
3795;SDS011;1913;50.660;7.834;2023-04-15T08:48:56;8.00;;;3.23;;
3795;SDS011;1913;50.660;7.834;2023-04-15T08:51:22;4.73;;;2.63;;
3795;SDS011;1913;50.660;7.834;2023-04-15T08:53:49;3.60;;;2.50;;
3795;SDS011;1913;50.660;7.834;2023-04-15T08:56:15;7.17;;;3.20;;
3795;SDS011;1913;50.660;7.834;2023-04-15T08:58:44;5.03;;;2.70;;
3795;SDS011;1913;50.660;7.834;2023-04-15T09:01:11;3.43;;;2.83;;
3795;SDS011;1913;50.660;7.834;2023-04-15T09:03:37;3.93;;;2.70;;
3795;SDS011;1913;50.660;7.834;2023-04-15T09:06:04;4.90;;;2.70;;
3795;SDS011;1913;50.660;7.834;2023-04-15T09:08:31;3.60;;;2.50;;
3795;SDS011;1913;50.660;7.834;2023-04-15T09:10:58;4.57;;;2.73;;
3795;SDS011;1913;50.660;7.834;2023-04-15T09:13:26;5.30;;;2.43;;
3795;SDS011;1913;50.660;7.834;2023-04-15T09:15:52;2.70;;;2.10;;
3795;SDS011;1913;50.660;7.834;2023-04-15T09:18:30;3.03;;;1.83;;
3795;SDS011;1913;50.660;7.834;2023-04-15T09:21:04;3.13;;;1.43;;
3795;SDS011;1913;50.660;7.834;2023-04-15T09:23:30;5.87;;;1.43;;
3795;SDS011;1913;50.660;7.834;2023-04-15T09:25:56;3.23;;;1.67;;
3795;SDS011;1913;50.660;7.834;2023-04-15T09:28:22;1.80;;;1.47;;
3795;SDS011;1913;50.660;7.834;2023-04-15T09:30:50;3.10;;;1.63;;
3795;SDS011;1913;50.660;7.834;2023-04-15T09:33:26;3.03;;;1.70;;
3795;SDS011;1913;50.660;7.834;2023-04-15T09:36:00;2.03;;;1.70;;
3795;SDS011;1913;50.660;7.834;2023-04-15T09:38:27;2.00;;;1.60;;
3795;SDS011;1913;50.660;7.834;2023-04-15T09:40:53;1.87;;;1.50;;
3795;SDS011;1913;50.660;7.834;2023-04-15T09:43:20;2.30;;;1.60;;
3795;SDS011;1913;50.660;7.834;2023-04-15T09:45:52;2.50;;;2.03;;
3795;SDS011;1913;50.660;7.834;2023-04-15T09:48:22;3.43;;;1.67;;
3795;SDS011;1913;50.660;7.834;2023-04-15T09:50:51;2.67;;;1.80;;
3795;SDS011;1913;50.660;7.834;2023-04-15T09:53:21;2.17;;;1.97;;
3795;SDS011;1913;50.660;7.834;2023-04-15T09:55:52;2.30;;;1.80;;
3795;SDS011;1913;50.660;7.834;2023-04-15T10:00:48;2.10;;;1.90;;
3795;SDS011;1913;50.660;7.834;2023-04-15T10:03:21;1.83;;;1.73;;
3795;SDS011;1913;50.660;7.834;2023-04-15T10:05:52;2.97;;;2.40;;
3795;SDS011;1913;50.660;7.834;2023-04-15T10:08:20;3.80;;;2.33;;
3795;SDS011;1913;50.660;7.834;2023-04-15T10:10:48;2.80;;;2.30;;
3795;SDS011;1913;50.660;7.834;2023-04-15T10:13:13;3.53;;;2.30;;
3795;SDS011;1913;50.660;7.834;2023-04-15T10:15:43;2.43;;;2.10;;
3795;SDS011;1913;50.660;7.834;2023-04-15T10:18:14;2.40;;;2.20;;
3795;SDS011;1913;50.660;7.834;2023-04-15T10:20:42;3.77;;;2.40;;
3795;SDS011;1913;50.660;7.834;2023-04-15T10:23:09;2.40;;;2.20;;
3795;SDS011;1913;50.660;7.834;2023-04-15T10:25:35;4.27;;;2.23;;
3795;SDS011;1913;50.660;7.834;2023-04-15T10:28:01;2.63;;;2.27;;
3795;SDS011;1913;50.660;7.834;2023-04-15T10:30:27;4.30;;;2.27;;
3795;SDS011;1913;50.660;7.834;2023-04-15T10:32:53;2.30;;;1.83;;
3795;SDS011;1913;50.660;7.834;2023-04-15T10:35:21;3.43;;;2.20;;
3795;SDS011;1913;50.660;7.834;2023-04-15T10:37:47;2.93;;;1.93;;
3795;SDS011;1913;50.660;7.834;2023-04-15T10:40:22;2.10;;;1.83;;
3795;SDS011;1913;50.660;7.834;2023-04-15T10:42:52;3.43;;;2.20;;
3795;SDS011;1913;50.660;7.834;2023-04-15T10:45:18;3.87;;;2.33;;
3795;SDS011;1913;50.660;7.834;2023-04-15T10:47:44;2.13;;;1.93;;
3795;SDS011;1913;50.660;7.834;2023-04-15T10:50:09;2.50;;;2.30;;
3795;SDS011;1913;50.660;7.834;2023-04-15T10:52:36;2.87;;;2.23;;
3795;SDS011;1913;50.660;7.834;2023-04-15T10:57:34;3.83;;;2.23;;
3795;SDS011;1913;50.660;7.834;2023-04-15T11:00:23;2.50;;;2.30;;
3795;SDS011;1913;50.660;7.834;2023-04-15T11:02:53;2.27;;;2.07;;
3795;SDS011;1913;50.660;7.834;2023-04-15T11:06:05;2.70;;;2.03;;
3795;SDS011;1913;50.660;7.834;2023-04-15T11:08:06;2.23;;;1.80;;
3795;SDS011;1913;50.660;7.834;2023-04-15T11:15:37;2.30;;;2.03;;
3795;SDS011;1913;50.660;7.834;2023-04-15T11:18:08;2.80;;;2.03;;
3795;SDS011;1913;50.660;7.834;2023-04-15T11:20:36;3.17;;;2.10;;
3795;SDS011;1913;50.660;7.834;2023-04-15T11:23:02;2.60;;;1.97;;
3795;SDS011;1913;50.660;7.834;2023-04-15T11:25:29;2.40;;;2.20;;
3795;SDS011;1913;50.660;7.834;2023-04-15T11:27:57;2.63;;;2.10;;
3795;SDS011;1913;50.660;7.834;2023-04-15T11:30:24;2.23;;;2.03;;
3795;SDS011;1913;50.660;7.834;2023-04-15T11:32:51;2.87;;;2.53;;
3795;SDS011;1913;50.660;7.834;2023-04-15T11:35:18;5.57;;;2.23;;
3795;SDS011;1913;50.660;7.834;2023-04-15T11:37:47;3.30;;;2.37;;
3795;SDS011;1913;50.660;7.834;2023-04-15T11:40:14;2.90;;;2.30;;
3795;SDS011;1913;50.660;7.834;2023-04-15T11:45:53;2.80;;;2.40;;
3795;SDS011;1913;50.660;7.834;2023-04-15T11:48:31;2.80;;;2.10;;
3795;SDS011;1913;50.660;7.834;2023-04-15T11:51:01;2.63;;;2.20;;
3795;SDS011;1913;50.660;7.834;2023-04-15T11:53:42;2.80;;;2.60;;
3795;SDS011;1913;50.660;7.834;2023-04-15T11:56:09;2.83;;;2.50;;
3795;SDS011;1913;50.660;7.834;2023-04-15T11:58:36;3.30;;;2.30;;
3795;SDS011;1913;50.660;7.834;2023-04-15T12:01:03;4.43;;;2.73;;
3795;SDS011;1913;50.660;7.834;2023-04-15T12:03:34;2.80;;;2.40;;
3795;SDS011;1913;50.660;7.834;2023-04-15T12:06:11;3.20;;;2.90;;
3795;SDS011;1913;50.660;7.834;2023-04-15T12:14:31;3.60;;;3.10;;
3795;SDS011;1913;50.660;7.834;2023-04-15T12:16:58;3.40;;;3.10;;
3795;SDS011;1913;50.660;7.834;2023-04-15T12:19:27;4.57;;;3.60;;
3795;SDS011;1913;50.660;7.834;2023-04-15T12:22:09;4.60;;;3.73;;
3795;SDS011;1913;50.660;7.834;2023-04-15T12:24:37;4.90;;;3.90;;
3795;SDS011;1913;50.660;7.834;2023-04-15T12:27:04;4.60;;;4.10;;
3795;SDS011;1913;50.660;7.834;2023-04-15T12:29:30;4.40;;;3.97;;
3795;SDS011;1913;50.660;7.834;2023-04-15T12:31:57;7.17;;;4.17;;
3795;SDS011;1913;50.660;7.834;2023-04-15T12:37:10;5.90;;;4.70;;
3795;SDS011;1913;50.660;7.834;2023-04-15T12:39:37;5.67;;;5.07;;
3795;SDS011;1913;50.660;7.834;2023-04-15T12:42:04;7.47;;;5.27;;
3795;SDS011;1913;50.660;7.834;2023-04-15T12:44:30;6.47;;;5.23;;
3795;SDS011;1913;50.660;7.834;2023-04-15T12:46:58;7.17;;;5.57;;
3795;SDS011;1913;50.660;7.834;2023-04-15T12:49:24;8.80;;;6.03;;
3795;SDS011;1913;50.660;7.834;2023-04-15T12:51:55;10.83;;;6.60;;
3795;SDS011;1913;50.660;7.834;2023-04-15T12:54:21;11.00;;;8.40;;
3795;SDS011;1913;50.660;7.834;2023-04-15T12:56:47;12.53;;;8.70;;
3795;SDS011;1913;50.660;7.834;2023-04-15T12:59:14;10.77;;;8.13;;
3795;SDS011;1913;50.660;7.834;2023-04-15T13:01:42;9.83;;;7.83;;
3795;SDS011;1913;50.660;7.834;2023-04-15T13:04:08;11.63;;;8.60;;
3795;SDS011;1913;50.660;7.834;2023-04-15T13:06:34;11.23;;;8.17;;
3795;SDS011;1913;50.660;7.834;2023-04-15T13:08:59;10.80;;;8.80;;
3795;SDS011;1913;50.660;7.834;2023-04-15T13:11:26;12.73;;;9.13;;
3795;SDS011;1913;50.660;7.834;2023-04-15T13:13:53;10.77;;;8.20;;
3795;SDS011;1913;50.660;7.834;2023-04-15T13:16:19;10.77;;;7.83;;
3795;SDS011;1913;50.660;7.834;2023-04-15T13:18:47;11.10;;;8.27;;
3795;SDS011;1913;50.660;7.834;2023-04-15T13:21:13;14.53;;;10.50;;
3795;SDS011;1913;50.660;7.834;2023-04-15T13:23:42;14.40;;;9.90;;
3795;SDS011;1913;50.660;7.834;2023-04-15T13:26:08;14.97;;;9.73;;
3795;SDS011;1913;50.660;7.834;2023-04-15T13:28:33;12.50;;;9.30;;
3795;SDS011;1913;50.660;7.834;2023-04-15T13:30:59;14.10;;;9.77;;
3795;SDS011;1913;50.660;7.834;2023-04-15T13:33:25;14.83;;;10.93;;
3795;SDS011;1913;50.660;7.834;2023-04-15T13:35:51;15.47;;;10.90;;
3795;SDS011;1913;50.660;7.834;2023-04-15T13:38:16;14.93;;;10.47;;
3795;SDS011;1913;50.660;7.834;2023-04-15T13:40:42;16.50;;;11.60;;
3795;SDS011;1913;50.660;7.834;2023-04-15T13:43:08;17.43;;;12.20;;
3795;SDS011;1913;50.660;7.834;2023-04-15T13:45:34;19.23;;;12.80;;
3795;SDS011;1913;50.660;7.834;2023-04-15T13:48:03;20.50;;;14.10;;
3795;SDS011;1913;50.660;7.834;2023-04-15T13:50:28;21.03;;;13.93;;
3795;SDS011;1913;50.660;7.834;2023-04-15T13:52:54;24.00;;;15.10;;
3795;SDS011;1913;50.660;7.834;2023-04-15T13:55:19;19.47;;;13.47;;
3795;SDS011;1913;50.660;7.834;2023-04-15T13:57:45;19.00;;;13.20;;
3795;SDS011;1913;50.660;7.834;2023-04-15T14:00:11;20.70;;;13.87;;
3795;SDS011;1913;50.660;7.834;2023-04-15T14:02:37;22.17;;;14.67;;
3795;SDS011;1913;50.660;7.834;2023-04-15T14:05:02;22.90;;;14.50;;
3795;SDS011;1913;50.660;7.834;2023-04-15T14:07:28;24.77;;;16.50;;
3795;SDS011;1913;50.660;7.834;2023-04-15T14:09:55;22.00;;;14.80;;
3795;SDS011;1913;50.660;7.834;2023-04-15T14:12:20;21.80;;;15.10;;
3795;SDS011;1913;50.660;7.834;2023-04-15T14:14:46;25.30;;;15.73;;
3795;SDS011;1913;50.660;7.834;2023-04-15T14:17:11;25.50;;;15.87;;
3795;SDS011;1913;50.660;7.834;2023-04-15T14:19:36;24.23;;;14.50;;
3795;SDS011;1913;50.660;7.834;2023-04-15T14:22:02;23.60;;;14.97;;
3795;SDS011;1913;50.660;7.834;2023-04-15T14:24:30;24.93;;;16.30;;
3795;SDS011;1913;50.660;7.834;2023-04-15T14:26:56;25.80;;;15.60;;
3795;SDS011;1913;50.660;7.834;2023-04-15T14:29:22;24.00;;;15.10;;
3795;SDS011;1913;50.660;7.834;2023-04-15T14:31:48;27.43;;;17.23;;
3795;SDS011;1913;50.660;7.834;2023-04-15T14:34:14;22.40;;;14.60;;
3795;SDS011;1913;50.660;7.834;2023-04-15T14:36:40;24.23;;;13.60;;
3795;SDS011;1913;50.660;7.834;2023-04-15T14:39:06;19.00;;;12.27;;
3795;SDS011;1913;50.660;7.834;2023-04-15T14:41:32;20.87;;;12.77;;
3795;SDS011;1913;50.660;7.834;2023-04-15T14:43:57;21.80;;;12.93;;
3795;SDS011;1913;50.660;7.834;2023-04-15T14:46:23;22.70;;;14.80;;
3795;SDS011;1913;50.660;7.834;2023-04-15T14:48:49;21.20;;;14.27;;
3795;SDS011;1913;50.660;7.834;2023-04-15T14:51:15;19.30;;;12.70;;
3795;SDS011;1913;50.660;7.834;2023-04-15T14:53:41;19.47;;;12.70;;
3795;SDS011;1913;50.660;7.834;2023-04-15T14:56:06;19.87;;;11.27;;
3795;SDS011;1913;50.660;7.834;2023-04-15T14:58:32;15.60;;;10.13;;
3795;SDS011;1913;50.660;7.834;2023-04-15T15:00:57;20.10;;;12.23;;
3795;SDS011;1913;50.660;7.834;2023-04-15T15:03:23;19.20;;;11.83;;
3795;SDS011;1913;50.660;7.834;2023-04-15T15:05:49;20.60;;;12.53;;
3795;SDS011;1913;50.660;7.834;2023-04-15T15:08:14;18.93;;;11.90;;
3795;SDS011;1913;50.660;7.834;2023-04-15T15:10:40;15.67;;;10.13;;
3795;SDS011;1913;50.660;7.834;2023-04-15T15:13:06;19.23;;;11.17;;
3795;SDS011;1913;50.660;7.834;2023-04-15T15:15:33;15.80;;;10.40;;
3795;SDS011;1913;50.660;7.834;2023-04-15T15:17:59;17.90;;;11.90;;
3795;SDS011;1913;50.660;7.834;2023-04-15T15:20:25;18.77;;;12.23;;
3795;SDS011;1913;50.660;7.834;2023-04-15T15:22:51;19.17;;;12.73;;
3795;SDS011;1913;50.660;7.834;2023-04-15T15:25:16;19.80;;;12.00;;
3795;SDS011;1913;50.660;7.834;2023-04-15T15:27:42;18.77;;;12.60;;